Terminal Aerodrome Forecast
Issued by NWS

Home | Current Version | Previous Version | Text Only | Print | Product List | Glossary On
Versions: 1 2 3 4 5 6 7 8 9 10 11 12 13 14 15 16 17
000
FTUS42 KTBW 041100
TAFLAL
TAF
KLAL 041130Z 0412/0512 13004KT 3SM BR SCT015 SCT250
     FM041400 14007KT P6SM SCT025 SCT250
     FM042300 25006KT P6SM FEW050 SCT250
     FM050300 00000KT P6SM SCT150 SCT250
     FM050600 VRB03KT 3SM BR SCT010=

USA.gov is the U.S. government's official web portal to all federal, state and local government web resources and services.